sensor_id;sensor_type;location;lat;lon;timestamp;temperature;humidity
19033;DHT22;9649;51.042;13.804;2022-07-19T00:01:17;19.30;99.90
19033;DHT22;9649;51.042;13.804;2022-07-19T00:06:21;19.20;99.90
19033;DHT22;9649;51.042;13.804;2022-07-19T00:11:24;19.10;99.90
19033;DHT22;9649;51.042;13.804;2022-07-19T00:16:26;18.80;99.90
19033;DHT22;9649;51.042;13.804;2022-07-19T00:21:31;18.60;99.90
19033;DHT22;9649;51.042;13.804;2022-07-19T00:26:34;18.70;99.90
19033;DHT22;9649;51.042;13.804;2022-07-19T00:31:36;18.60;99.90
19033;DHT22;9649;51.042;13.804;2022-07-19T00:36:41;18.60;99.90
19033;DHT22;9649;51.042;13.804;2022-07-19T00:41:44;18.70;99.90
19033;DHT22;9649;51.042;13.804;2022-07-19T00:46:47;18.70;99.90
19033;DHT22;9649;51.042;13.804;2022-07-19T00:51:51;18.70;99.90
19033;DHT22;9649;51.042;13.804;2022-07-19T00:56:54;18.50;99.90
19033;DHT22;9649;51.042;13.804;2022-07-19T01:02:01;18.30;99.90
19033;DHT22;9649;51.042;13.804;2022-07-19T01:07:06;18.10;99.90
19033;DHT22;9649;51.042;13.804;2022-07-19T01:12:10;18.30;99.90
19033;DHT22;9649;51.042;13.804;2022-07-19T01:17:13;18.30;99.90
19033;DHT22;9649;51.042;13.804;2022-07-19T01:22:17;18.10;99.90
19033;DHT22;9649;51.042;13.804;2022-07-19T01:27:20;17.90;99.90
19033;DHT22;9649;51.042;13.804;2022-07-19T01:32:22;17.80;99.90
19033;DHT22;9649;51.042;13.804;2022-07-19T01:37:26;17.80;99.90
19033;DHT22;9649;51.042;13.804;2022-07-19T01:42:29;17.80;99.90
19033;DHT22;9649;51.042;13.804;2022-07-19T01:47:32;17.70;99.90
19033;DHT22;9649;51.042;13.804;2022-07-19T01:52:37;17.80;99.90
19033;DHT22;9649;51.042;13.804;2022-07-19T01:57:45;17.60;99.90
19033;DHT22;9649;51.042;13.804;2022-07-19T02:02:47;17.50;99.90
19033;DHT22;9649;51.042;13.804;2022-07-19T02:07:52;17.60;99.90
19033;DHT22;9649;51.042;13.804;2022-07-19T02:12:54;17.50;99.90
19033;DHT22;9649;51.042;13.804;2022-07-19T02:17:57;17.40;99.90
19033;DHT22;9649;51.042;13.804;2022-07-19T02:23:01;17.30;99.90
19033;DHT22;9649;51.042;13.804;2022-07-19T02:28:04;17.20;99.90
19033;DHT22;9649;51.042;13.804;2022-07-19T02:33:06;17.20;99.90
19033;DHT22;9649;51.042;13.804;2022-07-19T02:38:10;17.10;99.90
19033;DHT22;9649;51.042;13.804;2022-07-19T02:43:13;17.10;99.90
19033;DHT22;9649;51.042;13.804;2022-07-19T02:48:16;17.00;99.90
19033;DHT22;9649;51.042;13.804;2022-07-19T02:53:20;16.90;99.90
19033;DHT22;9649;51.042;13.804;2022-07-19T02:58:23;16.90;99.90
19033;DHT22;9649;51.042;13.804;2022-07-19T03:03:26;16.80;99.90
19033;DHT22;9649;51.042;13.804;2022-07-19T03:08:50;16.80;99.90
19033;DHT22;9649;51.042;13.804;2022-07-19T03:13:53;16.70;99.90
19033;DHT22;9649;51.042;13.804;2022-07-19T03:18:55;16.70;99.90
19033;DHT22;9649;51.042;13.804;2022-07-19T03:24:00;16.80;99.90
19033;DHT22;9649;51.042;13.804;2022-07-19T03:29:02;16.80;99.90
19033;DHT22;9649;51.042;13.804;2022-07-19T03:34:05;16.70;99.90
19033;DHT22;9649;51.042;13.804;2022-07-19T03:39:09;16.70;99.90
19033;DHT22;9649;51.042;13.804;2022-07-19T03:44:12;16.80;99.90
19033;DHT22;9649;51.042;13.804;2022-07-19T03:49:15;16.70;99.90
19033;DHT22;9649;51.042;13.804;2022-07-19T03:54:19;16.70;99.90
19033;DHT22;9649;51.042;13.804;2022-07-19T03:59:22;16.80;99.90
19033;DHT22;9649;51.042;13.804;2022-07-19T04:04:25;16.80;99.90
19033;DHT22;9649;51.042;13.804;2022-07-19T04:09:29;16.90;99.90
19033;DHT22;9649;51.042;13.804;2022-07-19T04:14:31;16.90;99.90
19033;DHT22;9649;51.042;13.804;2022-07-19T04:19:34;17.00;99.90
19033;DHT22;9649;51.042;13.804;2022-07-19T04:24:39;17.10;99.90
19033;DHT22;9649;51.042;13.804;2022-07-19T04:29:41;17.20;99.90
19033;DHT22;9649;51.042;13.804;2022-07-19T04:34:44;17.40;99.90
19033;DHT22;9649;51.042;13.804;2022-07-19T04:39:48;17.60;99.90
19033;DHT22;9649;51.042;13.804;2022-07-19T04:44:51;17.70;99.90
19033;DHT22;9649;51.042;13.804;2022-07-19T04:49:54;17.90;99.90
19033;DHT22;9649;51.042;13.804;2022-07-19T04:54:58;18.10;99.90
19033;DHT22;9649;51.042;13.804;2022-07-19T05:00:01;18.30;99.90
19033;DHT22;9649;51.042;13.804;2022-07-19T05:05:05;18.50;99.90
19033;DHT22;9649;51.042;13.804;2022-07-19T05:10:09;18.70;99.90
19033;DHT22;9649;51.042;13.804;2022-07-19T05:15:13;18.90;99.90
19033;DHT22;9649;51.042;13.804;2022-07-19T05:20:17;19.20;99.90
19033;DHT22;9649;51.042;13.804;2022-07-19T05:25:21;19.30;99.90
19033;DHT22;9649;51.042;13.804;2022-07-19T05:30:24;19.70;99.90
19033;DHT22;9649;51.042;13.804;2022-07-19T05:35:27;20.00;99.90
19033;DHT22;9649;51.042;13.804;2022-07-19T05:40:33;20.20;99.90
19033;DHT22;9649;51.042;13.804;2022-07-19T05:45:36;20.40;99.90
19033;DHT22;9649;51.042;13.804;2022-07-19T05:50:39;20.80;99.90
19033;DHT22;9649;51.042;13.804;2022-07-19T05:55:43;21.10;99.90
19033;DHT22;9649;51.042;13.804;2022-07-19T06:00:46;21.40;99.90
19033;DHT22;9649;51.042;13.804;2022-07-19T06:06:03;21.30;99.90
19033;DHT22;9649;51.042;13.804;2022-07-19T06:11:08;21.60;99.90
19033;DHT22;9649;51.042;13.804;2022-07-19T06:16:11;22.10;99.90
19033;DHT22;9649;51.042;13.804;2022-07-19T06:21:17;22.20;99.90
19033;DHT22;9649;51.042;13.804;2022-07-19T06:26:22;22.40;99.90
19033;DHT22;9649;51.042;13.804;2022-07-19T06:31:25;22.50;99.90
19033;DHT22;9649;51.042;13.804;2022-07-19T06:36:28;22.90;99.90
19033;DHT22;9649;51.042;13.804;2022-07-19T06:41:32;23.10;99.90
19033;DHT22;9649;51.042;13.804;2022-07-19T06:46:35;23.30;99.90
19033;DHT22;9649;51.042;13.804;2022-07-19T06:51:38;23.50;99.90
19033;DHT22;9649;51.042;13.804;2022-07-19T06:56:42;24.00;99.90
19033;DHT22;9649;51.042;13.804;2022-07-19T07:01:44;24.40;99.90
19033;DHT22;9649;51.042;13.804;2022-07-19T07:06:48;24.60;99.90
19033;DHT22;9649;51.042;13.804;2022-07-19T07:11:52;24.80;99.90
19033;DHT22;9649;51.042;13.804;2022-07-19T07:16:54;25.00;99.90
19033;DHT22;9649;51.042;13.804;2022-07-19T07:21:57;25.30;99.30
19033;DHT22;9649;51.042;13.804;2022-07-19T07:27:04;25.60;98.10
19033;DHT22;9649;51.042;13.804;2022-07-19T07:32:06;26.00;96.80
19033;DHT22;9649;51.042;13.804;2022-07-19T07:37:10;26.30;95.00
19033;DHT22;9649;51.042;13.804;2022-07-19T07:42:14;26.30;93.40
19033;DHT22;9649;51.042;13.804;2022-07-19T07:47:17;26.40;92.40
19033;DHT22;9649;51.042;13.804;2022-07-19T07:52:20;26.90;91.30
19033;DHT22;9649;51.042;13.804;2022-07-19T07:57:24;27.10;90.00
19033;DHT22;9649;51.042;13.804;2022-07-19T08:02:27;27.40;86.90
19033;DHT22;9649;51.042;13.804;2022-07-19T08:07:30;27.70;85.60
19033;DHT22;9649;51.042;13.804;2022-07-19T08:12:34;28.10;83.30
19033;DHT22;9649;51.042;13.804;2022-07-19T08:17:37;28.20;80.90
19033;DHT22;9649;51.042;13.804;2022-07-19T08:22:40;28.50;78.60
19033;DHT22;9649;51.042;13.804;2022-07-19T08:27:44;28.80;75.20
19033;DHT22;9649;51.042;13.804;2022-07-19T08:32:50;29.00;77.10
19033;DHT22;9649;51.042;13.804;2022-07-19T08:37:54;29.40;67.90
19033;DHT22;9649;51.042;13.804;2022-07-19T08:43:03;29.70;69.10
19033;DHT22;9649;51.042;13.804;2022-07-19T08:48:07;30.10;64.90
19033;DHT22;9649;51.042;13.804;2022-07-19T08:53:13;30.40;61.40
19033;DHT22;9649;51.042;13.804;2022-07-19T08:58:19;30.80;61.30
19033;DHT22;9649;51.042;13.804;2022-07-19T09:03:21;31.10;59.00
19033;DHT22;9649;51.042;13.804;2022-07-19T09:08:24;31.00;53.50
19033;DHT22;9649;51.042;13.804;2022-07-19T09:13:29;32.00;52.70
19033;DHT22;9649;51.042;13.804;2022-07-19T09:18:34;36.40;47.00
19033;DHT22;9649;51.042;13.804;2022-07-19T09:23:40;39.10;41.80
19033;DHT22;9649;51.042;13.804;2022-07-19T09:28:45;41.50;34.10
19033;DHT22;9649;51.042;13.804;2022-07-19T09:33:52;42.60;30.70
19033;DHT22;9649;51.042;13.804;2022-07-19T09:58:05;48.80;99.90
19033;DHT22;9649;51.042;13.804;2022-07-19T10:03:09;49.40;99.90
19033;DHT22;9649;51.042;13.804;2022-07-19T10:08:13;51.10;96.80
19033;DHT22;9649;51.042;13.804;2022-07-19T10:13:18;52.00;85.80
19033;DHT22;9649;51.042;13.804;2022-07-19T10:18:21;53.10;70.00
19033;DHT22;9649;51.042;13.804;2022-07-19T10:23:30;54.10;54.00
19033;DHT22;9649;51.042;13.804;2022-07-19T10:28:36;53.00;39.00
19033;DHT22;9649;51.042;13.804;2022-07-19T10:34:01;53.00;34.00
19033;DHT22;9649;51.042;13.804;2022-07-19T10:39:23;54.40;27.40
19033;DHT22;9649;51.042;13.804;2022-07-19T10:44:33;55.50;19.70
19033;DHT22;9649;51.042;13.804;2022-07-19T10:49:42;55.00;14.70
19033;DHT22;9649;51.042;13.804;2022-07-19T10:54:45;55.00;12.80
19033;DHT22;9649;51.042;13.804;2022-07-19T10:59:49;55.10;3.80
19033;DHT22;9649;51.042;13.804;2022-07-19T11:04:52;55.00;1.30
19033;DHT22;9649;51.042;13.804;2022-07-19T11:09:57;56.50;1.00
19033;DHT22;9649;51.042;13.804;2022-07-19T11:15:04;56.30;1.00
19033;DHT22;9649;51.042;13.804;2022-07-19T11:20:17;56.30;1.00
19033;DHT22;9649;51.042;13.804;2022-07-19T11:25:24;55.20;1.00
19033;DHT22;9649;51.042;13.804;2022-07-19T11:30:30;55.40;1.00
19033;DHT22;9649;51.042;13.804;2022-07-19T11:35:34;53.20;1.00
19033;DHT22;9649;51.042;13.804;2022-07-19T11:40:38;53.60;1.00
19033;DHT22;9649;51.042;13.804;2022-07-19T11:45:44;53.00;1.00
19033;DHT22;9649;51.042;13.804;2022-07-19T11:50:57;53.20;10.80
19033;DHT22;9649;51.042;13.804;2022-07-19T11:56:00;55.20;1.00
19033;DHT22;9649;51.042;13.804;2022-07-19T12:01:05;55.80;1.00
19033;DHT22;9649;51.042;13.804;2022-07-19T12:06:08;53.40;1.00
19033;DHT22;9649;51.042;13.804;2022-07-19T12:11:19;54.40;1.00
19033;DHT22;9649;51.042;13.804;2022-07-19T12:16:23;54.30;1.00
19033;DHT22;9649;51.042;13.804;2022-07-19T12:21:35;54.30;1.00
19033;DHT22;9649;51.042;13.804;2022-07-19T12:26:44;54.70;1.00
19033;DHT22;9649;51.042;13.804;2022-07-19T12:31:59;54.50;1.00
19033;DHT22;9649;51.042;13.804;2022-07-19T12:37:17;53.80;1.00
19033;DHT22;9649;51.042;13.804;2022-07-19T12:42:20;54.70;1.00
19033;DHT22;9649;51.042;13.804;2022-07-19T12:47:24;53.60;1.00
19033;DHT22;9649;51.042;13.804;2022-07-19T12:52:42;51.80;1.00
19033;DHT22;9649;51.042;13.804;2022-07-19T12:57:46;51.80;1.00
19033;DHT22;9649;51.042;13.804;2022-07-19T13:02:51;52.30;1.00
19033;DHT22;9649;51.042;13.804;2022-07-19T13:07:54;52.50;1.00
19033;DHT22;9649;51.042;13.804;2022-07-19T13:12:57;51.20;1.00
19033;DHT22;9649;51.042;13.804;2022-07-19T13:18:01;51.20;1.00
19033;DHT22;9649;51.042;13.804;2022-07-19T13:23:04;53.00;1.00
19033;DHT22;9649;51.042;13.804;2022-07-19T13:28:07;54.70;1.00
19033;DHT22;9649;51.042;13.804;2022-07-19T13:33:11;53.40;1.00
19033;DHT22;9649;51.042;13.804;2022-07-19T13:38:14;53.30;1.00
19033;DHT22;9649;51.042;13.804;2022-07-19T13:43:16;53.20;1.00
19033;DHT22;9649;51.042;13.804;2022-07-19T13:48:20;54.10;1.00
19033;DHT22;9649;51.042;13.804;2022-07-19T13:53:23;54.70;1.00
19033;DHT22;9649;51.042;13.804;2022-07-19T13:58:26;54.00;1.00
19033;DHT22;9649;51.042;13.804;2022-07-19T14:03:30;53.40;1.00
19033;DHT22;9649;51.042;13.804;2022-07-19T14:08:33;53.50;1.00
19033;DHT22;9649;51.042;13.804;2022-07-19T14:13:36;52.70;1.00
19033;DHT22;9649;51.042;13.804;2022-07-19T14:18:40;50.40;1.00
19033;DHT22;9649;51.042;13.804;2022-07-19T14:23:43;51.00;1.00
19033;DHT22;9649;51.042;13.804;2022-07-19T14:28:46;52.30;1.00
19033;DHT22;9649;51.042;13.804;2022-07-19T14:33:50;52.10;1.00
19033;DHT22;9649;51.042;13.804;2022-07-19T14:39:13;52.30;1.00
19033;DHT22;9649;51.042;13.804;2022-07-19T14:44:16;52.10;1.00
19033;DHT22;9649;51.042;13.804;2022-07-19T14:49:20;51.30;1.00
19033;DHT22;9649;51.042;13.804;2022-07-19T14:54:23;52.10;1.00
19033;DHT22;9649;51.042;13.804;2022-07-19T14:59:26;52.80;1.00
19033;DHT22;9649;51.042;13.804;2022-07-19T15:04:30;52.60;1.00
19033;DHT22;9649;51.042;13.804;2022-07-19T15:09:33;52.20;1.00
19033;DHT22;9649;51.042;13.804;2022-07-19T15:14:36;51.20;1.00
19033;DHT22;9649;51.042;13.804;2022-07-19T15:19:41;51.30;1.00
19033;DHT22;9649;51.042;13.804;2022-07-19T15:24:43;51.60;1.00
19033;DHT22;9649;51.042;13.804;2022-07-19T15:29:46;51.50;1.00
19033;DHT22;9649;51.042;13.804;2022-07-19T15:34:50;51.10;1.00
19033;DHT22;9649;51.042;13.804;2022-07-19T15:39:53;48.90;1.00
19033;DHT22;9649;51.042;13.804;2022-07-19T15:44:56;45.30;1.00
19033;DHT22;9649;51.042;13.804;2022-07-19T15:50:00;43.10;1.00
19033;DHT22;9649;51.042;13.804;2022-07-19T15:55:03;43.20;1.00
19033;DHT22;9649;51.042;13.804;2022-07-19T16:00:08;44.00;1.00
19033;DHT22;9649;51.042;13.804;2022-07-19T16:05:13;45.00;1.00
19033;DHT22;9649;51.042;13.804;2022-07-19T16:10:16;46.00;1.00
19033;DHT22;9649;51.042;13.804;2022-07-19T16:15:27;47.00;1.00
19033;DHT22;9649;51.042;13.804;2022-07-19T16:20:31;47.00;1.00
19033;DHT22;9649;51.042;13.804;2022-07-19T16:25:34;46.40;1.00
19033;DHT22;9649;51.042;13.804;2022-07-19T16:30:37;45.80;1.00
19033;DHT22;9649;51.042;13.804;2022-07-19T16:35:41;45.70;1.00
19033;DHT22;9649;51.042;13.804;2022-07-19T16:40:43;44.20;1.00
19033;DHT22;9649;51.042;13.804;2022-07-19T16:45:46;44.00;1.00
19033;DHT22;9649;51.042;13.804;2022-07-19T16:50:50;44.50;1.00
19033;DHT22;9649;51.042;13.804;2022-07-19T16:55:53;44.70;1.00
19033;DHT22;9649;51.042;13.804;2022-07-19T17:00:56;44.80;1.00
19033;DHT22;9649;51.042;13.804;2022-07-19T17:06:00;44.70;1.00
19033;DHT22;9649;51.042;13.804;2022-07-19T17:11:03;44.40;1.00
19033;DHT22;9649;51.042;13.804;2022-07-19T17:16:06;44.10;1.00
19033;DHT22;9649;51.042;13.804;2022-07-19T17:21:10;43.60;1.00
19033;DHT22;9649;51.042;13.804;2022-07-19T17:26:13;43.50;1.00
19033;DHT22;9649;51.042;13.804;2022-07-19T17:31:16;43.50;1.00
19033;DHT22;9649;51.042;13.804;2022-07-19T17:36:20;43.00;1.00
19033;DHT22;9649;51.042;13.804;2022-07-19T17:41:24;42.60;1.00
19033;DHT22;9649;51.042;13.804;2022-07-19T17:46:27;42.20;1.00
19033;DHT22;9649;51.042;13.804;2022-07-19T17:51:32;41.40;1.00
19033;DHT22;9649;51.042;13.804;2022-07-19T17:56:35;40.30;8.30
19033;DHT22;9649;51.042;13.804;2022-07-19T18:01:40;39.50;28.20
19033;DHT22;9649;51.042;13.804;2022-07-19T18:06:48;38.80;8.40
19033;DHT22;9649;51.042;13.804;2022-07-19T18:11:58;38.00;3.20
19033;DHT22;9649;51.042;13.804;2022-07-19T18:17:16;37.40;11.10
19033;DHT22;9649;51.042;13.804;2022-07-19T18:22:31;36.90;8.20
19033;DHT22;9649;51.042;13.804;2022-07-19T18:27:36;36.30;4.70
19033;DHT22;9649;51.042;13.804;2022-07-19T18:32:45;35.60;28.80
19033;DHT22;9649;51.042;13.804;2022-07-19T18:37:54;35.10;15.80
19033;DHT22;9649;51.042;13.804;2022-07-19T18:43:01;34.50;48.80
19033;DHT22;9649;51.042;13.804;2022-07-19T18:48:14;34.00;26.00
19033;DHT22;9649;51.042;13.804;2022-07-19T18:53:37;33.60;33.00
19033;DHT22;9649;51.042;13.804;2022-07-19T18:58:40;33.10;72.20
19033;DHT22;9649;51.042;13.804;2022-07-19T19:03:44;32.70;67.50
19033;DHT22;9649;51.042;13.804;2022-07-19T19:08:51;32.40;68.20
19033;DHT22;9649;51.042;13.804;2022-07-19T19:13:57;32.10;81.90
19033;DHT22;9649;51.042;13.804;2022-07-19T19:19:00;31.80;95.60
19033;DHT22;9649;51.042;13.804;2022-07-19T19:24:05;31.60;98.00
19033;DHT22;9649;51.042;13.804;2022-07-19T19:29:10;31.40;99.90
19033;DHT22;9649;51.042;13.804;2022-07-19T19:34:13;31.30;99.90
19033;DHT22;9649;51.042;13.804;2022-07-19T19:39:17;31.10;99.90
19033;DHT22;9649;51.042;13.804;2022-07-19T19:44:20;30.80;99.90
19033;DHT22;9649;51.042;13.804;2022-07-19T19:49:22;30.80;99.90
19033;DHT22;9649;51.042;13.804;2022-07-19T19:54:26;30.50;99.90
19033;DHT22;9649;51.042;13.804;2022-07-19T19:59:29;30.20;99.90
19033;DHT22;9649;51.042;13.804;2022-07-19T20:04:32;29.90;99.90
19033;DHT22;9649;51.042;13.804;2022-07-19T20:09:37;29.80;99.90
19033;DHT22;9649;51.042;13.804;2022-07-19T20:14:40;29.80;99.90
19033;DHT22;9649;51.042;13.804;2022-07-19T20:19:43;29.50;99.90
19033;DHT22;9649;51.042;13.804;2022-07-19T20:24:47;29.30;99.90
19033;DHT22;9649;51.042;13.804;2022-07-19T20:29:51;29.10;99.90
19033;DHT22;9649;51.042;13.804;2022-07-19T20:34:53;29.00;99.90
19033;DHT22;9649;51.042;13.804;2022-07-19T20:40:01;28.80;99.90
19033;DHT22;9649;51.042;13.804;2022-07-19T20:45:05;28.60;99.90
19033;DHT22;9649;51.042;13.804;2022-07-19T20:50:08;28.60;99.90
19033;DHT22;9649;51.042;13.804;2022-07-19T20:55:12;28.40;99.90
19033;DHT22;9649;51.042;13.804;2022-07-19T21:00:15;28.30;99.90
19033;DHT22;9649;51.042;13.804;2022-07-19T21:05:18;28.10;99.90
19033;DHT22;9649;51.042;13.804;2022-07-19T21:10:23;28.10;99.90
19033;DHT22;9649;51.042;13.804;2022-07-19T21:15:26;27.90;99.90
19033;DHT22;9649;51.042;13.804;2022-07-19T21:20:29;27.60;99.90
19033;DHT22;9649;51.042;13.804;2022-07-19T21:25:34;27.40;99.90
19033;DHT22;9649;51.042;13.804;2022-07-19T21:30:37;27.10;99.90
19033;DHT22;9649;51.042;13.804;2022-07-19T21:35:40;27.00;99.90
19033;DHT22;9649;51.042;13.804;2022-07-19T21:40:44;27.10;99.90
19033;DHT22;9649;51.042;13.804;2022-07-19T21:45:46;26.90;99.90
19033;DHT22;9649;51.042;13.804;2022-07-19T21:50:49;26.70;52.90
19033;DHT22;9649;51.042;13.804;2022-07-19T21:55:53;26.70;53.50
19033;DHT22;9649;51.042;13.804;2022-07-19T22:00:56;26.40;54.80
19033;DHT22;9649;51.042;13.804;2022-07-19T22:05:59;26.20;55.60
19033;DHT22;9649;51.042;13.804;2022-07-19T22:11:03;26.10;56.20
19033;DHT22;9649;51.042;13.804;2022-07-19T22:16:06;26.00;56.60
19033;DHT22;9649;51.042;13.804;2022-07-19T22:21:09;25.90;57.00
19033;DHT22;9649;51.042;13.804;2022-07-19T22:26:13;25.80;57.50
19033;DHT22;9649;51.042;13.804;2022-07-19T22:31:16;25.50;58.80
19033;DHT22;9649;51.042;13.804;2022-07-19T22:36:19;25.30;60.20
19033;DHT22;9649;51.042;13.804;2022-07-19T22:41:23;25.20;61.70
19033;DHT22;9649;51.042;13.804;2022-07-19T22:46:26;25.00;62.60
19033;DHT22;9649;51.042;13.804;2022-07-19T22:51:29;25.00;63.40
19033;DHT22;9649;51.042;13.804;2022-07-19T22:56:33;24.80;64.20
19033;DHT22;9649;51.042;13.804;2022-07-19T23:01:36;24.60;66.70
19033;DHT22;9649;51.042;13.804;2022-07-19T23:06:48;24.40;68.60
19033;DHT22;9649;51.042;13.804;2022-07-19T23:11:52;24.50;69.10
19033;DHT22;9649;51.042;13.804;2022-07-19T23:16:55;24.30;70.50
19033;DHT22;9649;51.042;13.804;2022-07-19T23:21:58;24.10;72.30
19033;DHT22;9649;51.042;13.804;2022-07-19T23:27:12;24.00;74.20
19033;DHT22;9649;51.042;13.804;2022-07-19T23:32:15;24.00;74.90
19033;DHT22;9649;51.042;13.804;2022-07-19T23:37:18;23.90;75.90
19033;DHT22;9649;51.042;13.804;2022-07-19T23:42:22;23.80;77.30
19033;DHT22;9649;51.042;13.804;2022-07-19T23:47:24;23.50;79.30
19033;DHT22;9649;51.042;13.804;2022-07-19T23:52:27;23.50;80.30
19033;DHT22;9649;51.042;13.804;2022-07-19T23:57:31;23.30;82.40
